Map

Track Data

SID SEASON NUMBER BASIN SUBBASIN NAME ISO_TIME NATURE LAT LON WMO_WIND WMO_PRES WMO_AGENCY TRACK_TYPE DIST2LAND LANDFALL IFLAG USA_AGENCY USA_ATCF_ID USA_LAT USA_LON USA_RECORD USA_STATUS USA_WIND USA_PRES USA_SSHS USA_R34_NE USA_R34_SE USA_R34_SW USA_R34_NW USA_R50_NE USA_R50_SE USA_R50_SW USA_R50_NW USA_R64_NE USA_R64_SE USA_R64_SW USA_R64_NW USA_POCI USA_ROCI USA_RMW USA_EYE TOKYO_LAT TOKYO_LON TOKYO_GRADE TOKYO_WIND TOKYO_PRES TOKYO_R50_DIR TOKYO_R50_LONG TOKYO_R50_SHORT TOKYO_R30_DIR TOKYO_R30_LONG TOKYO_R30_SHORT TOKYO_LAND CMA_LAT CMA_LON CMA_CAT CMA_WIND CMA_PRES HKO_LAT HKO_LON HKO_CAT HKO_WIND HKO_PRES NEWDELHI_LAT NEWDELHI_LON NEWDELHI_GRADE NEWDELHI_WIND NEWDELHI_PRES NEWDELHI_CI NEWDELHI_DP NEWDELHI_POCI REUNION_LAT REUNION_LON REUNION_TYPE REUNION_WIND REUNION_PRES REUNION_TNUM REUNION_CI REUNION_RMW REUNION_R34_NE REUNION_R34_SE REUNION_R34_SW REUNION_R34_NW REUNION_R50_NE REUNION_R50_SE REUNION_R50_SW REUNION_R50_NW REUNION_R64_NE REUNION_R64_SE REUNION_R64_SW REUNION_R64_NW BOM_LAT BOM_LON BOM_TYPE BOM_WIND BOM_PRES BOM_TNUM BOM_CI BOM_RMW BOM_R34_NE BOM_R34_SE BOM_R34_SW BOM_R34_NW BOM_R50_NE BOM_R50_SE BOM_R50_SW BOM_R50_NW BOM_R64_NE BOM_R64_SE BOM_R64_SW BOM_R64_NW BOM_ROCI BOM_POCI BOM_EYE BOM_POS_METHOD BOM_PRES_METHOD NADI_LAT NADI_LON NADI_CAT NADI_WIND NADI_PRES WELLINGTON_LAT WELLINGTON_LON WELLINGTON_WIND WELLINGTON_PRES DS824_LAT DS824_LON DS824_STAGE DS824_WIND DS824_PRES TD9636_LAT TD9636_LON TD9636_STAGE TD9636_WIND TD9636_PRES TD9635_LAT TD9635_LON TD9635_WIND TD9635_PRES TD9635_ROCI NEUMANN_LAT NEUMANN_LON NEUMANN_CLASS NEUMANN_WIND NEUMANN_PRES MLC_LAT MLC_LON MLC_CLASS MLC_WIND MLC_PRES USA_GUST BOM_GUST BOM_GUST_PER REUNION_GUST REUNION_GUST_PER USA_SEAHGT USA_SEARAD_NE USA_SEARAD_SE USA_SEARAD_SW USA_SEARAD_NW STORM_SPEED STORM_DIR
1950288S08075 1951 93 SI MM NOT_NAMED 1950-10-15 06:00:00 TS -8.30000 74.8000 main 1714 1714 O________OO___ jtwc_sh SH031951 -8.30000 74.8000 -1 -8.30000 74.8000 TC 25 -8.30000 74.8000 7 4 256
1950288S08075 1951 93 SI MM NOT_NAMED 1950-10-15 09:00:00 TS -8.34813 74.6081 main 1722 1722 P________PP___ SH031951 -8.34253 74.5950 -1 -8.34253 74.5950 TC 25 -8.35932 74.6343 7 4 254
1950288S08075 1951 93 SI MM NOT_NAMED 1950-10-15 12:00:00 TS -8.40830 74.4183 main 1741 1741 O________OP___ jtwc_sh SH031951 -8.40000 74.4000 -1 -8.40000 74.4000 TC 25 -8.42489 74.4549 7 4 249
1950288S08075 1951 93 SI MM NOT_NAMED 1950-10-15 15:00:00 TS -8.49099 74.2260 main 1760 1760 P________PP___ SH031951 -8.48496 74.2150 -1 -8.48496 74.2150 TC 30 -8.50303 74.2480 7 5 245
1950288S08075 1951 93 SI MM NOT_NAMED 1950-10-15 18:00:00 TS -8.60000 74.0000 main 1779 1779 O________OO___ jtwc_sh SH031951 -8.60000 74.0000 -1 -8.60000 74.0000 TC 35 -8.60000 74.0000 2 6 244
1950288S08075 1951 93 SI MM NOT_NAMED 1950-10-15 21:00:00 TS -8.73964 73.7115 main 1802 1802 P________PP___ SH031951 -8.75001 73.7150 -1 -8.75001 73.7150 TC 35 -8.71889 73.7045 2 7 245
1950288S08075 1951 93 SI MM NOT_NAMED 1950-10-16 00:00:00 TS -8.88340 73.3951 main 1836 1836 O________OP___ jtwc_sh SH031951 -8.90000 73.4000 -1 -8.90000 73.4000 TC 35 -8.85021 73.3852 2 7 248
1950288S08075 1951 93 SI MM NOT_NAMED 1950-10-16 03:00:00 TS -8.99881 73.0761 main 1860 1860 P________PP___ SH031951 -9.00752 73.0775 -1 -9.00752 73.0775 TC 35 -8.98140 73.0732 2 6 250
1950288S08075 1951 93 SI MM NOT_NAMED 1950-10-16 06:00:00 TS -9.10000 72.8000 main 1885 1885 O________OO___ jtwc_sh SH031951 -9.10000 72.8000 -1 -9.10000 72.8000 TC 35 -9.10000 72.8000 2 5 246
1950288S08075 1951 93 SI MM NOT_NAMED 1950-10-16 09:00:00 TS -9.20273 72.6233 main 1905 1905 P________PP___ SH031951 -9.20746 72.6275 -1 -9.20746 72.6275 TC 35 -9.19327 72.6149 2 4 238
1950288S08075 1951 93 SI MM NOT_NAMED 1950-10-16 12:00:00 TS -9.29076 72.4900 main 1920 1920 O________OP___ jtwc_sh SH031951 -9.30000 72.5000 -1 -9.30000 72.5000 TC 35 -9.27228 72.4699 2 3 241
1950288S08075 1951 93 SI MM NOT_NAMED 1950-10-16 15:00:00 TS -9.35171 72.3516 main 1935 1935 P________PP___ SH031951 -9.35748 72.3575 -1 -9.35748 72.3575 TC 35 -9.34017 72.3399 2 3 249
1950288S08075 1951 93 SI MM NOT_NAMED 1950-10-16 18:00:00 TS -9.40000 72.2000 main 1945 1945 O________OO___ jtwc_sh SH031951 -9.40000 72.2000 -1 -9.40000 72.2000 TC 35 -9.40000 72.2000 2 3 253
1950288S08075 1951 93 SI MM NOT_NAMED 1950-10-16 21:00:00 TS -9.44964 72.0192 main 1947 1923 P________PP___ SH031951 -9.45000 72.0075 -1 -9.45000 72.0075 TC 35 -9.44892 72.0427 2 4 255
1950288S08075 1951 93 SI MM NOT_NAMED 1950-10-17 00:00:00 TS -9.49742 71.8224 main 1923 1906 O________OP___ jtwc_sh SH031951 -9.50000 71.8000 -1 -9.50000 71.8000 TC 35 -9.49226 71.8673 2 4 256
1950288S08075 1951 93 SI MM NOT_NAMED 1950-10-17 03:00:00 TS -9.54146 71.6344 main 1906 1882 P________PP___ SH031951 -9.54244 71.6225 -1 -9.54244 71.6225 TC 35 -9.53949 71.6583 2 4 256
1950288S08075 1951 93 SI MM NOT_NAMED 1950-10-17 06:00:00 TS -9.60000 71.4000 main 1882 1850 O________OO___ jtwc_sh SH031951 -9.60000 71.4000 -1 -9.60000 71.4000 TC 35 -9.60000 71.4000 2 6 255
1950288S08075 1951 93 SI MM NOT_NAMED 1950-10-17 09:00:00 TS -9.68750 71.0825 main 1850 1809 P________PP___ SH031951 -9.69250 71.0800 -1 -9.69250 71.0800 TC 35 -9.67750 71.0874 2 7 254
1950288S08075 1951 93 SI MM NOT_NAMED 1950-10-17 12:00:00 TS -9.78999 70.7083 main 1809 1769 O________OP___ jtwc_sh SH031951 -9.80000 70.7000 -1 -9.80000 70.7000 TC 35 -9.76996 70.7249 2 8 255
1950288S08075 1951 93 SI MM NOT_NAMED 1950-10-17 15:00:00 TS -9.88745 70.3182 main 1769 1729 P________PP___ SH031951 -9.89245 70.3149 -1 -9.89245 70.3149 TC 35 -9.87744 70.3249 2 8 255
1950288S08075 1951 93 SI MM NOT_NAMED 1950-10-17 18:00:00 TS -10.0000 69.9000 main 1729 1689 O________OO___ jtwc_sh SH031951 -10.0000 69.9000 -1 -10.0000 69.9000 TC 35 -10.0000 69.9000 2 9 253
1950288S08075 1951 93 SI MM NOT_NAMED 1950-10-17 21:00:00 TS -10.1428 69.4663 main 1689 1634 P________PP___ SH031951 -10.1425 69.4575 -1 -10.1425 69.4575 TC 35 -10.1436 69.4838 2 9 251
1950288S08075 1951 93 SI MM NOT_NAMED 1950-10-18 00:00:00 TS -10.2999 69.0150 main 1634 1594 O________OP___ jtwc_sh SH031951 -10.3000 69.0000 -1 -10.3000 69.0000 TC 35 -10.2997 69.0450 2 9 250
1950288S08075 1951 93 SI MM NOT_NAMED 1950-10-18 03:00:00 TS -10.4569 68.5662 main 1586 1539 P________PP___ SH031951 -10.4574 68.5575 -1 -10.4574 68.5575 TC 35 -10.4560 68.5838 2 10 252
1950288S08075 1951 93 SI MM NOT_NAMED 1950-10-18 06:00:00 TS -10.6000 68.1000 main 1539 1493 O________OO___ jtwc_sh SH031951 -10.6000 68.1000 -1 -10.6000 68.1000 TC 35 -10.6000 68.1000 2 10 255
1950288S08075 1951 93 SI MM NOT_NAMED 1950-10-18 09:00:00 TS -10.7110 67.6101 main 1493 1447 P________PP___ SH031951 -10.7074 67.6149 -1 -10.7074 67.6149 TC 35 -10.7183 67.6005 2 10 258
1950288S08075 1951 93 SI MM NOT_NAMED 1950-10-18 12:00:00 TS -10.8074 67.0933 main 1447 1402 O________OP___ jtwc_sh SH031951 -10.8000 67.1000 -1 -10.8000 67.1000 TC 35 -10.8223 67.0798 2 11 259
1950288S08075 1951 93 SI MM NOT_NAMED 1950-10-18 15:00:00 TS -10.9050 66.5530 main 1402 1351 P________PP___ SH031951 -10.8999 66.5575 -1 -10.8999 66.5575 TC 35 -10.9151 66.5442 2 11 260
1950288S08075 1951 93 SI MM NOT_NAMED 1950-10-18 18:00:00 TS -11.0000 66.0000 main 1351 1308 O________OO___ jtwc_sh SH031951 -11.0000 66.0000 -1 -11.0000 66.0000 TC 35 -11.0000 66.0000 2 11 260
1950288S08075 1951 93 SI MM NOT_NAMED 1950-10-18 21:00:00 TS -11.1016 65.4524 main 1308 1259 P________PP___ SH031951 -11.1074 65.4500 -1 -11.1074 65.4500 TC 35 -11.0901 65.4572 2 11 260
1950288S08075 1951 93 SI MM NOT_NAMED 1950-10-19 00:00:00 TS -11.1907 64.9025 main 1259 1227 O________OP___ jtwc_sh SH031951 -11.2000 64.9000 -1 -11.2000 64.9000 TC 35 -11.1722 64.9075 2 11 262
1950288S08075 1951 93 SI MM NOT_NAMED 1950-10-19 03:00:00 TS -11.2527 64.3513 main 1218 1181 P________PP___ SH031951 -11.2574 64.3499 -1 -11.2574 64.3499 TC 35 -11.2432 64.3541 2 11 264
1950288S08075 1951 93 SI MM NOT_NAMED 1950-10-19 06:00:00 TS -11.3000 63.8000 main 1181 1143 O________OO___ jtwc_sh SH031951 -11.3000 63.8000 -1 -11.3000 63.8000 TC 35 -11.3000 63.8000 2 11 264
1950288S08075 1951 93 SI MM NOT_NAMED 1950-10-19 09:00:00 TS -11.3567 63.2500 main 1143 1110 P________PP___ SH031951 -11.3574 63.2500 -1 -11.3574 63.2500 TC 35 -11.3553 63.2501 2 11 265
1950288S08075 1951 93 SI MM NOT_NAMED 1950-10-19 12:00:00 TS -11.3982 62.7000 main 1110 1086 O________OP___ jtwc_sh SH031951 -11.4000 62.7000 -1 -11.4000 62.7000 TC 35 -11.3946 62.7001 2 11 267
1950288S08075 1951 93 SI MM NOT_NAMED 1950-10-19 15:00:00 TS -11.4138 62.1500 main 1086 1059 P________PP___ SH031951 -11.4149 62.1500 -1 -11.4149 62.1500 TC 35 -11.4116 62.1501 2 11 270
1950288S08075 1951 93 SI MM NOT_NAMED 1950-10-19 18:00:00 TS -11.4000 61.6000 main 1059 1039 O________OO___ jtwc_sh SH031951 -11.4000 61.6000 -1 -11.4000 61.6000 TC 35 -11.4000 61.6000 2 11 272
1950288S08075 1951 93 SI MM NOT_NAMED 1950-10-19 21:00:00 TS -11.3680 61.0392 main 1035 1029 P________PP___ SH031951 -11.3649 61.0500 -1 -11.3649 61.0500 TC 35 -11.3741 61.0175 2 11 275
1950288S08075 1951 93 SI MM NOT_NAMED 1950-10-20 00:00:00 TS -11.3059 60.4800 main 1029 1017 O________OP___ jtwc_sh SH031951 -11.3000 60.5000 -1 -11.3000 60.5000 TC 35 -11.3177 60.4400 2 11 277
1950288S08075 1951 93 SI MM NOT_NAMED 1950-10-20 03:00:00 TS -11.2241 59.9109 main 1023 1016 P________PP___ SH031951 -11.2225 59.9200 -1 -11.2225 59.9200 TC 35 -11.2273 59.8925 2 11 281
1950288S08075 1951 93 SI MM NOT_NAMED 1950-10-20 06:00:00 TS -11.1000 59.4000 main 1023 1018 O________OO___ jtwc_sh SH031951 -11.1000 59.4000 -1 -11.1000 59.4000 TC 35 -11.1000 59.4000 2 9 289
1950288S08075 1951 93 SI MM NOT_NAMED 1950-10-20 09:00:00 TS -10.9230 59.0109 main 1018 989 P________PP___ SH031951 -10.9148 59.0200 -1 -10.9148 59.0200 TC 30 -10.9395 58.9926 2 8 299
1950288S08075 1951 93 SI MM NOT_NAMED 1950-10-20 12:00:00 TS -10.7148 58.6800 main 992 963 O________OP___ jtwc_sh SH031951 -10.7000 58.7000 -1 -10.7000 58.7000 TC 25 -10.7444 58.6401 2 8 302
1950288S08075 1951 93 SI MM NOT_NAMED 1950-10-20 15:00:00 TS -10.5090 58.3392 main 956 932 P________PP___ SH031951 -10.5000 58.3500 -1 -10.5000 58.3500 TC 25 -10.5271 58.3176 2 8 302
1950288S08075 1951 93 SI MM NOT_NAMED 1950-10-20 18:00:00 TS -10.3000 58.0000 main 932 910 O________OO___ jtwc_sh SH031951 -10.3000 58.0000 -1 -10.3000 58.0000 TC 25 -10.3000 58.0000 1 8 302
1950288S08075 1951 93 SI MM NOT_NAMED 1950-10-20 21:00:00 TS -10.0960 57.6558 main 910 878 P________PP___ SH031951 -10.1075 57.6501 -1 -10.1075 57.6501 TC 25 -10.0732 57.6673 1 8 301
1950288S08075 1951 93 SI MM NOT_NAMED 1950-10-21 00:00:00 TS -9.88268 57.3065 main 878 858 O________OP___ jtwc_sh SH031951 -9.90000 57.3000 -1 -9.90000 57.3000 TC 25 -9.84803 57.3196 1 8 303
1950288S08075 1951 93 SI MM NOT_NAMED 1950-10-21 03:00:00 TS -9.64800 56.9540 main 863 834 P________PP___ SH031951 -9.66007 56.9499 -1 -9.66007 56.9499 TC 25 -9.62386 56.9621 1 9 305
1950288S08075 1951 93 SI MM NOT_NAMED 1950-10-21 06:00:00 TS -9.40000 56.6000 main 834 O________OO___ jtwc_sh SH031951 -9.40000 56.6000 -1 -9.40000 56.6000 TC 25 -9.40000 56.6000 1 9 305

About IBTrACS Database

This database is a web-friendly format of International Best Track Archive for Climate Stewardship (IBTrACS), a global best track data archive curated by NOAA dating back to 1842.

Updated: 2021-10-21